Don's Testing Zone


Current Conditions
weather data
source:

National Weather Service
Mist Hot Springs, AR
Mist, 75°F
Sunday, August 19, 2018 6:53 AM CDT
Temperature: 75°F/24°C
Humidity: 100%
Barometer: 29.90in/1011.3mb Barometer Steady
Wind: W at 51mph/81kmh
Wind Advisory
View other cities:
Searcy | Little Rock | Hot Springs | Russellville | More...
Astronomical Conditions (Clear Sky Clock)
Searcy Clear Sky Clock
Find more weather in Little Rock, AR
    

Radar Images

NWS
    Wx Underground

KARK
   

Solar-Terrestrial Data

NWS METAR weather data

ADDS - METARS form results





Aviation Digital Data Service (ADDS) Output produced by METARs form (1210 UTC 19 August 2018) found at http://www.aviationweather.gov/adds/metars/ 

KHOT 191153Z AUTO 09004KT 5SM BR OVC005 24/24 A2990 RMK AO2 CIG 003V009 SLP118T02440244 10256 20244 51010

KHOT 191100Z AUTO 13003KT 7SM BKN007 24/24 A2989 RMK AO2 T02440244

KHOT 191053Z AUTO 15003KT 6SM BR SCT007 24/24 A2989 RMK AO2 SLP113 T02440244

KHOT 191051Z AUTO 15003KT 6SM BR SCT007 24/24 A2989 RMK AO2

KHOT 190953Z AUTO 00000KT 8SM CLR 25/24 A2987 RMK AO2 SLP107 T02500244

KHOT 190853Z AUTO 00000KT 8SM SCT010 OVC050 25/24 A2990 RMK AO2 SLP116 T0250024455011

KHOT 190753Z AUTO 10003KT 10SM BKN055 26/25 A2990 RMK AO2 SLP115 T02560250

KHOT 190653Z AUTO 08005KT 9SM CLR 24/24 A2991 RMK AO2 SLP122 T02440244

KHOT 190553Z AUTO 13003KT 9SM BKN065 25/24 A2993 RMK AO2 SLP128 T02500244 1030020244 403110217 58001

KHOT 190453Z AUTO 00000KT 9SM CLR 25/24 A2993 RMK AO2 SLP128 T02500244

KHOT 190353Z AUTO 00000KT 10SM CLR 26/24 A2994 RMK AO2 SLP132 T02560244

KHOT 190253Z AUTO 07005KT 10SM CLR 26/25 A2993 RMK AO2 SLP129 T02560250 53008

KHOT 190153Z AUTO 08004KT 10SM CLR 26/25 A2992 RMK AO2 SLP125 T02610250

KHOT 190053Z AUTO 09004KT 10SM CLR 28/25 A2991 RMK AO2 SLP121 T02830250

KHOT 182353Z AUTO 16003KT 10SM CLR 30/24 A2991 RMK AO2 SLP121 T03000244 1031120278 56010

KHOT 182253Z AUTO VRB04KT 10SM CLR 31/24 A2991 RMK AO2 SLP123 T03110244

KHOT 182153Z AUTO VRB03KT 10SM FEW060 31/24 A2993 RMK AO2 SLP126 T03110239

KHOT 182053Z AUTO 00000KT 10SM SCT046 SCT060 31/24 A2994 RMK AO2 SLP132T03110239 58015

KHOT 181953Z AUTO 00000KT 10SM FEW025 SCT032 30/24 A2997 RMK AO2 SLP141T03000239

KHOT 181950Z AUTO 01003KT 10SM FEW025 SCT032 31/24 A2997 RMK AO2

KHOT 181926Z AUTO 26003KT 10SM BKN023 29/24 A2998 RMK AO2 T02940244

KHOT 181900Z AUTO 30003KT 10SM FEW021 SCT080 29/24 A2998 RMK AO2 T02890244

KHOT 181853Z AUTO 25003KT 10SM BKN020 BKN080 29/24 A2998 RMK AO2 SLP147T02890239

KHOT 181753Z AUTO 00000KT 10SM OVC021 28/24 A3000 RMK AO2 SLP152 T02780239 1028320222 58007

KHOT 181653Z AUTO 29004KT 10SM BKN017 27/24 A3002 RMK AO2 SLP158 T02720239

KHOT 181634Z AUTO 24003KT 10SM BKN015 27/24 A3002 RMK AO2 T02720239

KHOT 181553Z AUTO VRB03KT 10SM OVC011 27/24 A3002 RMK AO2 SLP159 T02670244

KHOT 181505Z AUTO 32003KT 10SM OVC010 25/23 A3002 RMK AO2 CIG 007V012 T02500233

KHOT 181453Z AUTO 00000KT 10SM OVC008 25/23 A3002 RMK AO2 CIG 006V012 SLP160T02500233 58001

KHOT 181416Z AUTO 30003KT 10SM BKN005 25/23 A3003 RMK AO2 T02500233

KHOT 181404Z AUTO 00000KT 10SM SCT005 24/23 A3003 RMK AO2 T02440233

KHOT 181353Z AUTO 00000KT 10SM BKN005 BKN009 24/23 A3004 RMK AO2 CIG 003V007SLP165 T02390233

KHOT 181328Z AUTO 00000KT 10SM BKN003 OVC007 23/23 A3004 RMK AO2 CIG 002V006T02330228

KHOT 181319Z AUTO 00000KT 10SM BKN005 23/23 A3004 RMK AO2 CIG 002V007 T02330233

KHOT 181309Z AUTO 00000KT 10SM FEW002 SCT007 23/23 A3004 RMK AO2 T02330233

KHOT 181253Z AUTO 00000KT 10SM CLR 23/23 A3003 RMK AO2 LTG DSNT SE SLP164T02280228

KHOT 181215Z AUTO 00000KT 10SM BKN080 23/23 A3003 RMK AO2 LTG DSNT SE AND ST02280228